sensor_id;sensor_type;location;lat;lon;timestamp;pressure;altitude;pressure_sealevel;temperature;humidity
19447;BME280;9862;49.462;11.054;2023-04-22T00:00:55;97527.06;;;16.07;100.00
19447;BME280;9862;49.462;11.054;2023-04-22T00:03:23;97536.75;;;16.08;100.00
19447;BME280;9862;49.462;11.054;2023-04-22T00:05:49;97527.06;;;16.07;100.00
19447;BME280;9862;49.462;11.054;2023-04-22T00:08:17;97527.13;;;16.12;100.00
19447;BME280;9862;49.462;11.054;2023-04-22T00:10:43;97528.69;;;16.08;100.00
19447;BME280;9862;49.462;11.054;2023-04-22T00:13:10;97524.38;;;16.07;100.00
19447;BME280;9862;49.462;11.054;2023-04-22T00:15:36;97524.59;;;16.00;100.00
19447;BME280;9862;49.462;11.054;2023-04-22T00:18:03;97528.34;;;15.99;100.00
19447;BME280;9862;49.462;11.054;2023-04-22T00:20:31;97523.78;;;15.99;100.00
19447;BME280;9862;49.462;11.054;2023-04-22T00:22:58;97519.47;;;15.98;100.00
19447;BME280;9862;49.462;11.054;2023-04-22T00:25:26;97516.00;;;15.98;100.00
19447;BME280;9862;49.462;11.054;2023-04-22T00:27:52;97517.31;;;15.95;100.00
19447;BME280;9862;49.462;11.054;2023-04-22T00:30:19;97520.00;;;15.95;100.00
19447;BME280;9862;49.462;11.054;2023-04-22T00:32:45;97520.00;;;15.95;100.00
19447;BME280;9862;49.462;11.054;2023-04-22T00:35:13;97520.75;;;15.91;100.00
19447;BME280;9862;49.462;11.054;2023-04-22T00:37:39;97512.69;;;15.91;100.00
19447;BME280;9862;49.462;11.054;2023-04-22T00:40:07;97517.00;;;15.92;100.00
19447;BME280;9862;49.462;11.054;2023-04-22T00:42:35;97515.66;;;15.89;100.00
19447;BME280;9862;49.462;11.054;2023-04-22T00:45:03;97518.34;;;15.89;100.00
19447;BME280;9862;49.462;11.054;2023-04-22T00:47:30;97513.78;;;15.90;100.00
19447;BME280;9862;49.462;11.054;2023-04-22T00:49:57;97514.03;;;15.88;100.00
19447;BME280;9862;49.462;11.054;2023-04-22T00:52:24;97516.16;;;15.86;100.00
19447;BME280;9862;49.462;11.054;2023-04-22T00:54:51;97525.84;;;15.87;100.00
19447;BME280;9862;49.462;11.054;2023-04-22T00:57:17;97525.28;;;15.85;100.00
19447;BME280;9862;49.462;11.054;2023-04-22T00:59:46;97543.00;;;15.86;100.00
19447;BME280;9862;49.462;11.054;2023-04-22T01:02:13;97536.81;;;15.86;100.00
19447;BME280;9862;49.462;11.054;2023-04-22T01:04:40;97530.66;;;15.85;100.00
19447;BME280;9862;49.462;11.054;2023-04-22T01:07:07;97523.09;;;15.82;100.00
19447;BME280;9862;49.462;11.054;2023-04-22T01:09:33;97530.66;;;15.85;100.00
19447;BME280;9862;49.462;11.054;2023-04-22T01:12:00;97527.34;;;15.78;100.00
19447;BME280;9862;49.462;11.054;2023-04-22T01:14:27;97532.19;;;15.76;100.00
19447;BME280;9862;49.462;11.054;2023-04-22T01:16:55;97532.19;;;15.76;100.00
19447;BME280;9862;49.462;11.054;2023-04-22T01:19:22;97528.44;;;15.77;100.00
19447;BME280;9862;49.462;11.054;2023-04-22T01:21:49;97522.50;;;15.75;100.00
19447;BME280;9862;49.462;11.054;2023-04-22T01:24:17;97523.06;;;15.77;100.00
19447;BME280;9862;49.462;11.054;2023-04-22T01:26:45;97528.44;;;15.77;100.00
19447;BME280;9862;49.462;11.054;2023-04-22T01:29:12;97520.63;;;15.76;100.00
19447;BME280;9862;49.462;11.054;2023-04-22T01:31:39;97524.13;;;15.76;100.00
19447;BME280;9862;49.462;11.054;2023-04-22T01:34:06;97526.50;;;15.72;100.00
19447;BME280;9862;49.462;11.054;2023-04-22T01:36:32;97514.94;;;15.72;100.00
19447;BME280;9862;49.462;11.054;2023-04-22T01:38:59;97522.44;;;15.70;100.00
19447;BME280;9862;49.462;11.054;2023-04-22T01:41:27;97521.09;;;15.67;100.00
19447;BME280;9862;49.462;11.054;2023-04-22T01:43:57;97522.44;;;15.70;100.00
19447;BME280;9862;49.462;11.054;2023-04-22T01:46:23;97519.50;;;15.71;100.00
19447;BME280;9862;49.462;11.054;2023-04-22T01:48:50;97522.44;;;15.70;100.00
19447;BME280;9862;49.462;11.054;2023-04-22T01:51:16;97524.84;;;15.66;100.00
19447;BME280;9862;49.462;11.054;2023-04-22T01:53:44;97522.97;;;15.67;100.00
19447;BME280;9862;49.462;11.054;2023-04-22T01:56:11;97521.34;;;15.66;100.00
19447;BME280;9862;49.462;11.054;2023-04-22T01:58:39;97520.53;;;15.65;100.00
19447;BME280;9862;49.462;11.054;2023-04-22T02:01:07;97514.28;;;15.60;100.00
19447;BME280;9862;49.462;11.054;2023-04-22T02:03:34;97521.28;;;15.61;100.00
19447;BME280;9862;49.462;11.054;2023-04-22T02:06:01;97523.16;;;15.60;100.00
19447;BME280;9862;49.462;11.054;2023-04-22T02:08:29;97526.66;;;15.61;100.00
19447;BME280;9862;49.462;11.054;2023-04-22T02:10:56;97529.00;;;15.57;100.00
19447;BME280;9862;49.462;11.054;2023-04-22T02:13:34;97535.19;;;15.58;100.00
19447;BME280;9862;49.462;11.054;2023-04-22T02:16:04;97532.75;;;15.56;100.00
19447;BME280;9862;49.462;11.054;2023-04-22T02:18:33;97540.06;;;15.61;100.00
19447;BME280;9862;49.462;11.054;2023-04-22T02:21:01;97544.28;;;15.57;100.00
19447;BME280;9862;49.462;11.054;2023-04-22T02:23:28;97538.38;;;15.55;100.00
19447;BME280;9862;49.462;11.054;2023-04-22T02:25:56;97544.47;;;15.50;100.00
19447;BME280;9862;49.462;11.054;2023-04-22T02:28:23;97542.06;;;15.49;100.00
19447;BME280;9862;49.462;11.054;2023-04-22T02:30:50;97545.25;;;15.45;100.00
19447;BME280;9862;49.462;11.054;2023-04-22T02:33:18;97549.56;;;15.46;100.00
19447;BME280;9862;49.462;11.054;2023-04-22T02:35:45;97541.25;;;15.48;100.00
19447;BME280;9862;49.462;11.054;2023-04-22T02:38:14;97545.81;;;15.48;100.00
19447;BME280;9862;49.462;11.054;2023-04-22T02:40:40;97541.97;;;15.43;100.00
19447;BME280;9862;49.462;11.054;2023-04-22T02:43:07;97542.25;;;15.42;100.00
19447;BME280;9862;49.462;11.054;2023-04-22T02:45:34;97542.25;;;15.42;100.00
19447;BME280;9862;49.462;11.054;2023-04-22T02:48:00;97548.41;;;15.42;100.00
19447;BME280;9862;49.462;11.054;2023-04-22T02:50:28;97556.72;;;15.41;100.00
19447;BME280;9862;49.462;11.054;2023-04-22T02:52:54;97553.47;;;15.39;100.00
19447;BME280;9862;49.462;11.054;2023-04-22T02:55:21;97553.72;;;15.37;100.00
19447;BME280;9862;49.462;11.054;2023-04-22T02:57:49;97556.41;;;15.37;100.00
19447;BME280;9862;49.462;11.054;2023-04-22T03:00:16;97547.81;;;15.35;100.00
19447;BME280;9862;49.462;11.054;2023-04-22T03:02:42;97552.38;;;15.35;100.00
19447;BME280;9862;49.462;11.054;2023-04-22T03:05:08;97551.53;;;15.34;100.00
19447;BME280;9862;49.462;11.054;2023-04-22T03:07:37;97547.81;;;15.35;100.00
19447;BME280;9862;49.462;11.054;2023-04-22T03:10:04;97547.22;;;15.33;100.00
19447;BME280;9862;49.462;11.054;2023-04-22T03:12:31;97548.84;;;15.34;100.00
19447;BME280;9862;49.462;11.054;2023-04-22T03:14:57;97548.31;;;15.32;100.00
19447;BME280;9862;49.462;11.054;2023-04-22T03:17:24;97547.19;;;15.28;100.00
19447;BME280;9862;49.462;11.054;2023-04-22T03:19:50;97549.88;;;15.28;100.00
19447;BME280;9862;49.462;11.054;2023-04-22T03:22:17;97550.13;;;15.27;100.00
19447;BME280;9862;49.462;11.054;2023-04-22T03:24:45;97547.69;;;15.25;100.00
19447;BME280;9862;49.462;11.054;2023-04-22T03:27:11;97549.81;;;15.23;100.00
19447;BME280;9862;49.462;11.054;2023-04-22T03:29:38;97551.75;;;15.28;100.00
19447;BME280;9862;49.462;11.054;2023-04-22T03:32:04;97545.25;;;15.24;100.00
19447;BME280;9862;49.462;11.054;2023-04-22T03:34:31;97549.50;;;15.20;100.00
19447;BME280;9862;49.462;11.054;2023-04-22T03:36:57;97541.38;;;15.14;100.00
19447;BME280;9862;49.462;11.054;2023-04-22T03:39:24;97541.88;;;15.11;100.00
19447;BME280;9862;49.462;11.054;2023-04-22T03:41:52;97545.88;;;15.09;100.00
19447;BME280;9862;49.462;11.054;2023-04-22T03:44:18;97545.88;;;15.09;100.00
19447;BME280;9862;49.462;11.054;2023-04-22T03:46:44;97546.94;;;15.08;100.00
19447;BME280;9862;49.462;11.054;2023-04-22T03:49:11;97545.81;;;15.04;100.00
19447;BME280;9862;49.462;11.054;2023-04-22T03:51:37;97538.78;;;14.98;100.00
19447;BME280;9862;49.462;11.054;2023-04-22T03:54:04;97539.50;;;14.93;100.00
19447;BME280;9862;49.462;11.054;2023-04-22T03:56:31;97546.19;;;14.91;100.00
19447;BME280;9862;49.462;11.054;2023-04-22T03:58:59;97542.94;;;14.88;100.00
19447;BME280;9862;49.462;11.054;2023-04-22T04:01:25;97544.56;;;14.89;100.00
19447;BME280;9862;49.462;11.054;2023-04-22T04:03:52;97541.63;;;14.91;100.00
19447;BME280;9862;49.462;11.054;2023-04-22T04:06:18;97542.44;;;14.92;100.00
19447;BME280;9862;49.462;11.054;2023-04-22T04:08:46;97540.53;;;14.87;100.00
19447;BME280;9862;49.462;11.054;2023-04-22T04:11:12;97536.44;;;14.84;100.00
19447;BME280;9862;49.462;11.054;2023-04-22T04:13:39;97541.25;;;14.82;100.00
19447;BME280;9862;49.462;11.054;2023-04-22T04:16:06;97530.78;;;14.81;100.00
19447;BME280;9862;49.462;11.054;2023-04-22T04:18:33;97538.56;;;14.82;100.00
19447;BME280;9862;49.462;11.054;2023-04-22T04:21:01;97541.25;;;14.82;100.00
19447;BME280;9862;49.462;11.054;2023-04-22T04:23:27;97531.91;;;14.85;100.00
19447;BME280;9862;49.462;11.054;2023-04-22T04:25:54;97531.09;;;14.84;100.00
19447;BME280;9862;49.462;11.054;2023-04-22T04:28:20;97534.28;;;14.81;100.00
19447;BME280;9862;49.462;11.054;2023-04-22T04:30:47;97534.84;;;14.83;100.00
19447;BME280;9862;49.462;11.054;2023-04-22T04:33:15;97537.47;;;14.78;100.00
19447;BME280;9862;49.462;11.054;2023-04-22T04:35:42;97530.47;;;14.77;100.00
19447;BME280;9862;49.462;11.054;2023-04-22T04:38:09;97529.69;;;14.77;100.00
19447;BME280;9862;49.462;11.054;2023-04-22T04:40:36;97537.47;;;14.78;100.00
19447;BME280;9862;49.462;11.054;2023-04-22T04:43:02;97536.16;;;14.81;100.00
19447;BME280;9862;49.462;11.054;2023-04-22T04:45:32;97536.94;;;14.81;100.00
19447;BME280;9862;49.462;11.054;2023-04-22T04:48:00;97539.94;;;14.85;100.00
19447;BME280;9862;49.462;11.054;2023-04-22T04:50:28;97541.88;;;14.89;100.00
19447;BME280;9862;49.462;11.054;2023-04-22T04:52:55;97545.22;;;14.97;100.00
19447;BME280;9862;49.462;11.054;2023-04-22T04:55:22;97539.34;;;15.00;100.00
19447;BME280;9862;49.462;11.054;2023-04-22T04:57:48;97544.41;;;14.96;100.00
19447;BME280;9862;49.462;11.054;2023-04-22T05:00:15;97545.22;;;14.97;100.00
19447;BME280;9862;49.462;11.054;2023-04-22T05:02:42;97547.44;;;15.05;100.00
19447;BME280;9862;49.462;11.054;2023-04-22T05:05:09;97536.97;;;15.03;100.00
19447;BME280;9862;49.462;11.054;2023-04-22T05:07:37;97535.72;;;15.11;100.00
19447;BME280;9862;49.462;11.054;2023-04-22T05:10:04;97538.16;;;15.12;100.00
19447;BME280;9862;49.462;11.054;2023-04-22T05:12:30;97538.47;;;15.16;100.00
19447;BME280;9862;49.462;11.054;2023-04-22T05:14:57;97538.47;;;15.16;100.00
19447;BME280;9862;49.462;11.054;2023-04-22T05:17:24;97553.25;;;15.18;100.00
19447;BME280;9862;49.462;11.054;2023-04-22T05:19:50;97550.31;;;15.20;100.00
19447;BME280;9862;49.462;11.054;2023-04-22T05:22:17;97546.81;;;15.20;100.00
19447;BME280;9862;49.462;11.054;2023-04-22T05:24:45;97555.50;;;15.27;100.00
19447;BME280;9862;49.462;11.054;2023-04-22T05:27:11;97552.22;;;15.25;100.00
19447;BME280;9862;49.462;11.054;2023-04-22T05:29:38;97551.53;;;15.34;100.00
19447;BME280;9862;49.462;11.054;2023-04-22T05:32:05;97554.47;;;15.33;100.00
19447;BME280;9862;49.462;11.054;2023-04-22T05:34:32;97556.09;;;15.34;100.00
19447;BME280;9862;49.462;11.054;2023-04-22T05:37:01;97562.72;;;15.26;100.00
19447;BME280;9862;49.462;11.054;2023-04-22T05:39:27;97560.59;;;15.28;100.00
19447;BME280;9862;49.462;11.054;2023-04-22T05:41:55;97565.00;;;15.39;100.00
19447;BME280;9862;49.462;11.054;2023-04-22T05:44:22;97557.38;;;15.26;100.00
19447;BME280;9862;49.462;11.054;2023-04-22T05:46:48;97562.09;;;15.19;100.00
19447;BME280;9862;49.462;11.054;2023-04-22T05:49:15;97554.06;;;15.19;100.00
19447;BME280;9862;49.462;11.054;2023-04-22T05:51:41;97568.31;;;15.25;100.00
19447;BME280;9862;49.462;11.054;2023-04-22T05:54:07;97564.38;;;15.32;100.00
19447;BME280;9862;49.462;11.054;2023-04-22T05:56:34;97563.41;;;15.38;100.00
19447;BME280;9862;49.462;11.054;2023-04-22T05:59:02;97577.97;;;15.48;100.00
19447;BME280;9862;49.462;11.054;2023-04-22T06:01:29;97575.03;;;15.49;100.00
19447;BME280;9862;49.462;11.054;2023-04-22T06:03:55;97577.81;;;15.54;100.00
19447;BME280;9862;49.462;11.054;2023-04-22T06:06:23;97579.22;;;15.62;100.00
19447;BME280;9862;49.462;11.054;2023-04-22T06:08:50;97577.13;;;15.64;100.00
19447;BME280;9862;49.462;11.054;2023-04-22T06:11:17;97575.00;;;15.66;100.00
19447;BME280;9862;49.462;11.054;2023-04-22T06:13:43;97565.06;;;15.66;100.00
19447;BME280;9862;49.462;11.054;2023-04-22T06:16:11;97575.63;;;15.73;100.00
19447;BME280;9862;49.462;11.054;2023-04-22T06:18:37;97570.84;;;15.80;100.00
19447;BME280;9862;49.462;11.054;2023-04-22T06:21:04;97569.84;;;15.86;100.00
19447;BME280;9862;49.462;11.054;2023-04-22T06:23:31;97572.56;;;15.91;100.00
19447;BME280;9862;49.462;11.054;2023-04-22T06:25:57;97564.56;;;15.96;100.00
19447;BME280;9862;49.462;11.054;2023-04-22T06:28:25;97574.78;;;15.99;100.00
19447;BME280;9862;49.462;11.054;2023-04-22T06:30:52;97567.84;;;16.03;100.00
19447;BME280;9862;49.462;11.054;2023-04-22T06:33:20;97577.31;;;16.11;100.00
19447;BME280;9862;49.462;11.054;2023-04-22T06:35:46;97574.16;;;16.19;100.00
19447;BME280;9862;49.462;11.054;2023-04-22T06:38:13;97574.97;;;16.20;100.00
19447;BME280;9862;49.462;11.054;2023-04-22T06:40:39;97574.16;;;16.19;100.00
19447;BME280;9862;49.462;11.054;2023-04-22T06:43:06;97573.41;;;16.24;100.00
19447;BME280;9862;49.462;11.054;2023-04-22T06:45:32;97568.66;;;16.36;100.00
19447;BME280;9862;49.462;11.054;2023-04-22T06:47:59;97570.28;;;16.37;100.00
19447;BME280;9862;49.462;11.054;2023-04-22T06:50:27;97573.75;;;16.38;100.00
19447;BME280;9862;49.462;11.054;2023-04-22T06:52:54;97576.25;;;16.49;100.00
19447;BME280;9862;49.462;11.054;2023-04-22T06:55:21;97573.00;;;16.42;100.00
19447;BME280;9862;49.462;11.054;2023-04-22T06:57:49;97570.31;;;16.42;100.00
19447;BME280;9862;49.462;11.054;2023-04-22T07:00:16;97571.41;;;16.46;100.00
19447;BME280;9862;49.462;11.054;2023-04-22T07:02:43;97561.19;;;16.43;100.00
19447;BME280;9862;49.462;11.054;2023-04-22T07:05:09;97553.13;;;16.43;100.00
19447;BME280;9862;49.462;11.054;2023-04-22T07:07:38;97548.09;;;16.52;100.00
19447;BME280;9862;49.462;11.054;2023-04-22T07:10:05;97548.75;;;16.69;100.00
19447;BME280;9862;49.462;11.054;2023-04-22T07:12:31;97550.69;;;16.74;100.00
19447;BME280;9862;49.462;11.054;2023-04-22T07:14:58;97546.97;;;16.80;100.00
19447;BME280;9862;49.462;11.054;2023-04-22T07:17:24;97544.28;;;16.85;100.00
19447;BME280;9862;49.462;11.054;2023-04-22T07:19:51;97545.41;;;16.89;100.00
19447;BME280;9862;49.462;11.054;2023-04-22T07:22:17;97546.75;;;16.97;100.00
19447;BME280;9862;49.462;11.054;2023-04-22T07:24:46;97540.94;;;17.10;100.00
19447;BME280;9862;49.462;11.054;2023-04-22T07:27:12;97539.06;;;17.15;100.00
19447;BME280;9862;49.462;11.054;2023-04-22T07:29:39;97543.63;;;17.10;100.00
19447;BME280;9862;49.462;11.054;2023-04-22T07:32:06;97532.88;;;17.15;100.00
19447;BME280;9862;49.462;11.054;2023-04-22T07:34:32;97543.09;;;17.13;100.00
19447;BME280;9862;49.462;11.054;2023-04-22T07:36:59;97529.91;;;17.16;100.00
19447;BME280;9862;49.462;11.054;2023-04-22T07:39:26;97538.56;;;17.19;100.00
19447;BME280;9862;49.462;11.054;2023-04-22T07:41:54;97534.78;;;17.20;100.00
19447;BME280;9862;49.462;11.054;2023-04-22T07:44:22;97527.00;;;17.23;100.00
19447;BME280;9862;49.462;11.054;2023-04-22T07:46:48;97532.41;;;17.28;100.00
19447;BME280;9862;49.462;11.054;2023-04-22T07:49:15;97529.47;;;17.40;100.00
19447;BME280;9862;49.462;11.054;2023-04-22T07:51:42;97535.38;;;17.42;100.00
19447;BME280;9862;49.462;11.054;2023-04-22T07:54:08;97533.25;;;17.54;99.38
19447;BME280;9862;49.462;11.054;2023-04-22T07:56:35;97530.03;;;17.52;99.37
19447;BME280;9862;49.462;11.054;2023-04-22T07:59:03;97535.16;;;17.49;100.00
19447;BME280;9862;49.462;11.054;2023-04-22T08:01:30;97537.03;;;17.48;100.00
19447;BME280;9862;49.462;11.054;2023-04-22T08:03:56;97530.03;;;17.47;100.00
19447;BME280;9862;49.462;11.054;2023-04-22T08:06:23;97535.16;;;17.54;100.00
19447;BME280;9862;49.462;11.054;2023-04-22T08:08:49;97534.16;;;17.70;100.00
19447;BME280;9862;49.462;11.054;2023-04-22T08:11:16;97537.09;;;17.73;100.00
19447;BME280;9862;49.462;11.054;2023-04-22T08:13:43;97539.03;;;17.88;100.00
19447;BME280;9862;49.462;11.054;2023-04-22T08:16:11;97527.16;;;17.94;99.11
19447;BME280;9862;49.462;11.054;2023-04-22T08:18:37;97530.66;;;17.95;97.99
19447;BME280;9862;49.462;11.054;2023-04-22T08:21:04;97531.75;;;17.99;97.72
19447;BME280;9862;49.462;11.054;2023-04-22T08:23:31;97533.38;;;18.00;98.74
19447;BME280;9862;49.462;11.054;2023-04-22T08:25:57;97525.84;;;18.12;96.64
19447;BME280;9862;49.462;11.054;2023-04-22T08:28:24;97530.41;;;18.17;93.88
19447;BME280;9862;49.462;11.054;2023-04-22T08:30:51;97529.59;;;18.21;93.37
19447;BME280;9862;49.462;11.054;2023-04-22T08:33:18;97533.94;;;18.17;94.12
19447;BME280;9862;49.462;11.054;2023-04-22T08:35:45;97535.00;;;18.11;94.96
19447;BME280;9862;49.462;11.054;2023-04-22T08:38:12;97535.28;;;18.15;95.57
19447;BME280;9862;49.462;11.054;2023-04-22T08:40:39;97530.69;;;18.15;96.30
19447;BME280;9862;49.462;11.054;2023-04-22T08:43:07;97534.19;;;18.21;96.11
19447;BME280;9862;49.462;11.054;2023-04-22T08:45:34;97534.19;;;18.26;93.61
19447;BME280;9862;49.462;11.054;2023-04-22T08:48:02;97530.16;;;18.34;93.94
19447;BME280;9862;49.462;11.054;2023-04-22T08:50:31;97528.53;;;18.38;94.98
19447;BME280;9862;49.462;11.054;2023-04-22T08:52:58;97521.75;;;18.55;93.66
19447;BME280;9862;49.462;11.054;2023-04-22T08:55:25;97517.16;;;18.76;91.56
19447;BME280;9862;49.462;11.054;2023-04-22T08:57:52;97505.84;;;18.74;91.34
19447;BME280;9862;49.462;11.054;2023-04-22T09:00:19;97507.72;;;18.79;91.32
19447;BME280;9862;49.462;11.054;2023-04-22T09:02:46;97503.41;;;18.83;93.91
19447;BME280;9862;49.462;11.054;2023-04-22T09:05:14;97507.97;;;18.93;91.17
19447;BME280;9862;49.462;11.054;2023-04-22T09:07:42;97497.94;;;19.03;90.63
19447;BME280;9862;49.462;11.054;2023-04-22T09:10:10;97495.97;;;19.19;89.69
19447;BME280;9862;49.462;11.054;2023-04-22T09:12:37;97493.19;;;19.34;87.88
19447;BME280;9862;49.462;11.054;2023-04-22T09:15:06;97489.47;;;19.25;89.32
19447;BME280;9862;49.462;11.054;2023-04-22T09:17:34;97488.91;;;19.28;88.07
19447;BME280;9862;49.462;11.054;2023-04-22T09:20:03;97489.47;;;19.25;87.43
19447;BME280;9862;49.462;11.054;2023-04-22T09:22:37;97481.94;;;19.22;86.73
19447;BME280;9862;49.462;11.054;2023-04-22T09:25:13;97480.34;;;19.16;87.63
19447;BME280;9862;49.462;11.054;2023-04-22T09:27:40;97481.38;;;19.30;84.50
19447;BME280;9862;49.462;11.054;2023-04-22T09:30:08;97487.28;;;19.27;84.34
19447;BME280;9862;49.462;11.054;2023-04-22T09:32:34;97484.94;;;19.15;84.71
19447;BME280;9862;49.462;11.054;2023-04-22T09:35:01;97481.94;;;19.17;86.58
19447;BME280;9862;49.462;11.054;2023-04-22T09:37:28;97483.88;;;19.11;86.58
19447;BME280;9862;49.462;11.054;2023-04-22T09:39:55;97483.59;;;19.08;86.54
19447;BME280;9862;49.462;11.054;2023-04-22T09:42:23;97480.63;;;19.09;87.00
19447;BME280;9862;49.462;11.054;2023-04-22T09:44:50;97476.56;;;19.17;85.79
19447;BME280;9862;49.462;11.054;2023-04-22T09:47:17;97479.75;;;19.24;86.13
19447;BME280;9862;49.462;11.054;2023-04-22T09:49:45;97477.50;;;19.41;86.15
19447;BME280;9862;49.462;11.054;2023-04-22T09:52:20;97469.38;;;19.47;85.77
19447;BME280;9862;49.462;11.054;2023-04-22T09:54:48;97470.44;;;19.56;83.89
19447;BME280;9862;49.462;11.054;2023-04-22T09:57:16;97467.13;;;19.69;81.93
19447;BME280;9862;49.462;11.054;2023-04-22T09:59:43;97463.78;;;19.77;82.16
19447;BME280;9862;49.462;11.054;2023-04-22T10:02:10;97467.50;;;19.86;80.86
19447;BME280;9862;49.462;11.054;2023-04-22T10:04:37;97458.28;;;19.92;78.27
19447;BME280;9862;49.462;11.054;2023-04-22T10:07:03;97464.19;;;19.94;78.73
19447;BME280;9862;49.462;11.054;2023-04-22T10:09:31;97462.72;;;20.07;75.15
19447;BME280;9862;49.462;11.054;2023-04-22T10:11:58;97458.16;;;20.08;73.71
19447;BME280;9862;49.462;11.054;2023-04-22T10:14:26;97453.31;;;20.05;74.66
19447;BME280;9862;49.462;11.054;2023-04-22T10:16:56;97446.09;;;20.24;73.99
19447;BME280;9862;49.462;11.054;2023-04-22T10:19:25;97450.13;;;20.26;72.04
19447;BME280;9862;49.462;11.054;2023-04-22T10:21:54;97447.59;;;20.35;71.63
19447;BME280;9862;49.462;11.054;2023-04-22T10:24:24;97438.75;;;20.29;71.65
19447;BME280;9862;49.462;11.054;2023-04-22T10:26:54;97444.84;;;20.45;71.81
19447;BME280;9862;49.462;11.054;2023-04-22T10:29:22;97448.41;;;20.65;69.75
19447;BME280;9862;49.462;11.054;2023-04-22T10:31:55;97437.19;;;20.52;70.86
19447;BME280;9862;49.462;11.054;2023-04-22T10:34:22;97436.16;;;20.48;70.24
19447;BME280;9862;49.462;11.054;2023-04-22T10:37:00;97436.75;;;20.69;67.81
19447;BME280;9862;49.462;11.054;2023-04-22T10:39:28;97430.94;;;20.57;68.13
19447;BME280;9862;49.462;11.054;2023-04-22T10:41:57;97431.66;;;20.63;67.47
19447;BME280;9862;49.462;11.054;2023-04-22T10:44:44;97423.44;;;20.73;68.04
19447;BME280;9862;49.462;11.054;2023-04-22T10:47:23;97422.25;;;20.60;69.01
19447;BME280;9862;49.462;11.054;2023-04-22T10:49:50;97415.84;;;20.51;68.53
19447;BME280;9862;49.462;11.054;2023-04-22T10:52:26;97419.75;;;20.64;67.39
19447;BME280;9862;49.462;11.054;2023-04-22T10:54:59;97412.69;;;20.68;66.77
19447;BME280;9862;49.462;11.054;2023-04-22T10:57:31;97411.13;;;20.62;67.91
19447;BME280;9862;49.462;11.054;2023-04-22T11:00:26;97399.59;;;20.75;68.11
19447;BME280;9862;49.462;11.054;2023-04-22T11:03:07;97397.09;;;21.02;66.13
19447;BME280;9862;49.462;11.054;2023-04-22T11:05:35;97403.19;;;20.94;64.13
19447;BME280;9862;49.462;11.054;2023-04-22T11:08:03;97401.53;;;20.93;65.59
19447;BME280;9862;49.462;11.054;2023-04-22T11:10:33;97404.34;;;21.07;64.03
19447;BME280;9862;49.462;11.054;2023-04-22T11:13:01;97397.53;;;21.09;63.36
19447;BME280;9862;49.462;11.054;2023-04-22T11:15:31;97390.38;;;21.19;63.47
19447;BME280;9862;49.462;11.054;2023-04-22T11:17:59;97394.69;;;21.20;63.29
19447;BME280;9862;49.462;11.054;2023-04-22T11:20:26;97398.69;;;21.27;62.53
19447;BME280;9862;49.462;11.054;2023-04-22T11:22:55;97390.25;;;21.29;61.63
19447;BME280;9862;49.462;11.054;2023-04-22T11:25:23;97392.47;;;21.27;60.43
19447;BME280;9862;49.462;11.054;2023-04-22T11:27:51;97381.97;;;21.39;59.78
19447;BME280;9862;49.462;11.054;2023-04-22T11:30:19;97382.34;;;21.32;59.11
19447;BME280;9862;49.462;11.054;2023-04-22T11:32:48;97390.91;;;21.39;59.04
19447;BME280;9862;49.462;11.054;2023-04-22T11:35:17;97393.16;;;21.51;60.36
19447;BME280;9862;49.462;11.054;2023-04-22T11:37:46;97388.63;;;21.47;61.11
19447;BME280;9862;49.462;11.054;2023-04-22T11:40:15;97391.56;;;21.50;60.33
19447;BME280;9862;49.462;11.054;2023-04-22T11:42:41;97373.63;;;21.54;61.17
19447;BME280;9862;49.462;11.054;2023-04-22T11:45:09;97378.94;;;21.59;59.77
19447;BME280;9862;49.462;11.054;2023-04-22T11:47:36;97384.38;;;21.59;59.75
19447;BME280;9862;49.462;11.054;2023-04-22T11:50:04;97373.00;;;21.76;56.66
19447;BME280;9862;49.462;11.054;2023-04-22T11:52:46;97378.91;;;21.78;57.80
19447;BME280;9862;49.462;11.054;2023-04-22T11:55:14;97375.19;;;21.74;57.62
19447;BME280;9862;49.462;11.054;2023-04-22T11:57:42;97385.72;;;21.76;55.44
19447;BME280;9862;49.462;11.054;2023-04-22T12:00:12;97376.84;;;21.89;52.75
19447;BME280;9862;49.462;11.054;2023-04-22T12:02:39;97371.22;;;21.99;50.73
19447;BME280;9862;49.462;11.054;2023-04-22T12:05:09;97369.38;;;22.13;49.70
19447;BME280;9862;49.462;11.054;2023-04-22T12:07:37;97376.50;;;22.09;51.27
19447;BME280;9862;49.462;11.054;2023-04-22T12:10:06;97363.97;;;22.13;53.92
19447;BME280;9862;49.462;11.054;2023-04-22T12:12:33;97360.22;;;22.09;53.56
19447;BME280;9862;49.462;11.054;2023-04-22T12:15:09;97358.63;;;22.08;52.32
19447;BME280;9862;49.462;11.054;2023-04-22T12:17:36;97355.16;;;22.21;49.77
19447;BME280;9862;49.462;11.054;2023-04-22T12:20:03;97355.94;;;22.22;51.49
19447;BME280;9862;49.462;11.054;2023-04-22T12:22:31;97354.03;;;22.22;51.90
19447;BME280;9862;49.462;11.054;2023-04-22T12:24:59;97361.38;;;22.36;51.22
19447;BME280;9862;49.462;11.054;2023-04-22T12:27:27;97359.25;;;22.33;52.64
19447;BME280;9862;49.462;11.054;2023-04-22T12:29:55;97352.53;;;22.30;53.46
19447;BME280;9862;49.462;11.054;2023-04-22T12:32:22;97359.34;;;22.27;53.41
19447;BME280;9862;49.462;11.054;2023-04-22T12:34:49;97343.19;;;22.50;55.28
19447;BME280;9862;49.462;11.054;2023-04-22T12:37:16;97344.22;;;22.40;55.74
19447;BME280;9862;49.462;11.054;2023-04-22T12:39:43;97353.72;;;22.38;54.36
19447;BME280;9862;49.462;11.054;2023-04-22T12:42:10;97353.03;;;22.46;54.62
19447;BME280;9862;49.462;11.054;2023-04-22T12:44:38;97351.34;;;22.50;53.98
19447;BME280;9862;49.462;11.054;2023-04-22T12:47:05;97349.91;;;22.52;55.03
19447;BME280;9862;49.462;11.054;2023-04-22T12:49:33;97345.16;;;22.58;54.61
19447;BME280;9862;49.462;11.054;2023-04-22T12:52:00;97341.38;;;22.59;54.36
19447;BME280;9862;49.462;11.054;2023-04-22T12:54:27;97336.16;;;22.49;55.43